Time;durP1;ratioP1;P1;durP2;ratioP2;P2;SDS_P1;SDS_P2;PMS_P1;PMS_P2;Temp;Humidity;BMP_temperature;BMP_pressure;BME280_temperature;BME280_humidity;BME280_pressure;Samples;Min_cycle;Max_cycle;Signal;HPM_P1;HPM_P2
2021/11/21 00:00:30;;;;;;;;;;;;;;;19.42;52.52;99840.69;2082104;28;20204;-45
2021/11/21 00:01:30;;;;;;;;;;;;;;;19.41;52.56;99838.97;2077791;28;20239;-44
2021/11/21 00:02:30;;;;;;;;;;;;;;;19.41;52.58;99838.97;2083879;28;19923;-45
2021/11/21 00:03:31;;;;;;;;;;;;;;;19.42;52.52;99845.31;2080445;28;19958;-45
2021/11/21 00:04:31;;;;;;;;;;;;;;;19.42;52.53;99834.38;2085307;28;20596;-44
2021/11/21 00:05:31;;;;;;;;;;;;;;;19.41;52.59;99838.97;2082734;28;19917;-45
2021/11/21 00:06:32;;;;;;;;;;;;;;;19.42;52.47;99834.38;2076314;28;19920;-45
2021/11/21 00:07:32;;;;;;;;;;;;;;;19.43;52.49;99836.09;2077654;28;20003;-45
2021/11/21 00:08:33;;;;;;;;;;;;;;;19.43;52.52;99841.56;2077960;28;19916;-44
2021/11/21 00:09:33;;;;;;;;;;;;;;;19.43;52.54;99836.09;2077855;28;19905;-47
2021/11/21 00:10:34;;;;;;;;;;;;;;;19.43;52.48;99834.22;2085255;28;20273;-44
2021/11/21 00:11:34;;;;;;;;;;;;;;;19.43;52.52;99830.63;2082682;28;19931;-45
2021/11/21 00:12:35;;;;;;;;;;;;;;;19.43;52.70;99827.91;2084863;28;19909;-44
2021/11/21 00:13:35;;;;;;;;;;;;;;;19.43;52.52;99836.09;2078682;28;19916;-44
2021/11/21 00:14:36;;;;;;;;;;;;;;;19.42;52.45;99834.38;2083694;28;19908;-45
2021/11/21 00:15:39;;;;;;;;;;;;;;;19.43;52.46;99836.09;2084413;28;20484;-45
2021/11/21 00:16:40;;;;;;;;;;;;;;;19.41;52.44;99827.19;2079720;28;19913;-45
2021/11/21 00:17:40;;;;;;;;;;;;;;;19.42;52.34;99828.91;2083866;28;20867;-44
2021/11/21 00:18:40;;;;;;;;;;;;;;;19.42;52.47;99829.75;2081127;28;19923;-44
2021/11/21 00:19:41;;;;;;;;;;;;;;;19.41;52.44;99821.72;2082742;28;20219;-44
2021/11/21 00:20:42;;;;;;;;;;;;;;;19.42;52.43;99828.91;2085212;28;19995;-44
2021/11/21 00:21:42;;;;;;;;;;;;;;;19.41;52.45;99821.72;2082155;28;19916;-45
2021/11/21 00:22:46;;;;;;;;;;;;;;;19.41;52.38;99829.94;2083266;28;20470;-45
2021/11/21 00:23:46;;;;;;;;;;;;;;;19.40;52.52;99822.72;2085292;28;20186;-47
2021/11/21 00:24:47;;;;;;;;;;;;;;;19.41;52.44;99827.19;2078395;28;19916;-45
2021/11/21 00:25:47;;;;;;;;;;;;;;;19.40;52.42;99817.25;2084347;28;19924;-45
2021/11/21 00:26:48;;;;;;;;;;;;;;;19.40;52.45;99820.00;2084468;28;19916;-45
2021/11/21 00:27:48;;;;;;;;;;;;;;;19.40;52.49;99820.88;2081278;28;20161;-45
2021/11/21 00:28:49;;;;;;;;;;;;;;;19.39;52.42;99813.69;2083734;28;19987;-47
2021/11/21 00:29:53;;;;;;;;;;;;;;;19.40;52.57;99817.25;2082691;28;19916;-44
2021/11/21 00:30:54;;;;;;;;;;;;;;;19.40;52.46;99820.00;2082896;28;20509;-44
2021/11/21 00:31:54;;;;;;;;;;;;;;;19.39;52.47;99812.81;2085130;28;19917;-46
2021/11/21 00:32:55;;;;;;;;;;;;;;;19.39;52.56;99815.56;2085773;28;19919;-45
2021/11/21 00:33:55;;;;;;;;;;;;;;;19.39;52.54;99812.81;2084599;28;19955;-44
2021/11/21 00:34:56;;;;;;;;;;;;;;;19.39;52.53;99812.81;2073621;28;19999;-45
2021/11/21 00:35:56;;;;;;;;;;;;;;;19.38;52.48;99811.13;2084976;28;19909;-44
2021/11/21 00:36:57;;;;;;;;;;;;;;;19.38;52.48;99817.44;2085575;28;19917;-45
2021/11/21 00:37:58;;;;;;;;;;;;;;;19.37;52.51;99810.25;2083376;28;19966;-44
2021/11/21 00:38:59;;;;;;;;;;;;;;;19.38;52.46;99816.59;2082940;28;20055;-44
2021/11/21 00:39:59;;;;;;;;;;;;;;;19.37;52.50;99814.84;2077307;28;19944;-45
2021/11/21 00:40:59;;;;;;;;;;;;;;;19.37;52.54;99798.44;2081063;28;20106;-45
2021/11/21 00:42:00;;;;;;;;;;;;;;;19.37;52.57;99803.91;2078635;28;20341;-46
2021/11/21 00:43:01;;;;;;;;;;;;;;;19.36;52.54;99797.59;2084879;28;19923;-44
2021/11/21 00:44:01;;;;;;;;;;;;;;;19.36;52.57;99807.69;2080964;28;19938;-44
2021/11/21 00:45:03;;;;;;;;;;;;;;;19.37;52.57;99798.44;2082107;28;20098;-45
2021/11/21 00:46:04;;;;;;;;;;;;;;;19.36;52.52;99803.06;2080443;28;20090;-46
2021/11/21 00:47:04;;;;;;;;;;;;;;;19.36;52.51;99797.59;2085232;28;20630;-45
2021/11/21 00:48:04;;;;;;;;;;;;;;;19.36;52.57;99797.59;2080630;28;20277;-44
2021/11/21 00:49:11;;;;;;;;;;;;;;;19.36;52.56;99802.22;2081685;28;19920;-44
2021/11/21 00:50:13;;;;;;;;;;;;;;;19.36;52.48;99804.94;2080538;28;19917;-44
2021/11/21 00:51:15;;;;;;;;;;;;;;;19.36;52.64;99803.06;2077765;28;19917;-44
2021/11/21 00:52:15;;;;;;;;;;;;;;;19.35;52.59;99803.22;2081773;28;19913;-45
2021/11/21 00:53:15;;;;;;;;;;;;;;;19.35;52.63;99800.47;2083954;28;20203;-44
2021/11/21 00:55:08;;;;;;;;;;;;;;;19.35;52.64;99804.06;2084306;28;19919;-48
2021/11/21 00:55:44;;;;;;;;;;;;;;;19.34;52.66;99804.25;2080545;28;20294;-45
2021/11/21 00:56:44;;;;;;;;;;;;;;;19.34;52.65;99804.25;2082107;28;19927;-44
2021/11/21 00:57:45;;;;;;;;;;;;;;;19.33;52.68;99797.94;2083680;28;19923;-45
2021/11/21 00:58:45;;;;;;;;;;;;;;;19.33;52.70;99797.03;2084404;28;20198;-45
2021/11/21 00:59:45;;;;;;;;;;;;;;;19.33;52.70;99797.03;2084781;28;19908;-44
2021/11/21 01:00:47;;;;;;;;;;;;;;;19.33;52.74;99794.31;2084333;28;20315;-44
2021/11/21 01:01:48;;;;;;;;;;;;;;;19.33;52.79;99797.03;2072871;28;20322;-44
2021/11/21 01:02:48;;;;;;;;;;;;;;;19.32;52.70;99800.81;2074955;28;20226;-45
2021/11/21 01:03:48;;;;;;;;;;;;;;;19.33;52.69;99800.66;2079816;28;19963;-45
2021/11/21 01:04:49;;;;;;;;;;;;;;;19.33;52.78;99802.50;2085656;28;20869;-44
2021/11/21 01:05:50;;;;;;;;;;;;;;;19.33;52.69;99802.50;2079027;28;20196;-44
2021/11/21 01:06:50;;;;;;;;;;;;;;;19.32;52.46;99798.94;2082148;28;20161;-45
2021/11/21 01:07:50;;;;;;;;;;;;;;;19.33;52.72;99797.03;2079020;28;19956;-44
2021/11/21 01:08:51;;;;;;;;;;;;;;;19.33;52.66;99792.47;2084765;28;20240;-48
2021/11/21 01:09:51;;;;;;;;;;;;;;;19.33;52.67;99792.47;2079117;28;20188;-44
2021/11/21 01:10:53;;;;;;;;;;;;;;;19.33;52.63;99795.19;2083133;28;19974;-44
2021/11/21 01:11:56;;;;;;;;;;;;;;;19.35;52.64;99789.53;2080484;28;19920;-46
2021/11/21 01:12:57;;;;;;;;;;;;;;;19.34;52.59;99793.31;2084050;28;20080;-44
2021/11/21 01:13:57;;;;;;;;;;;;;;;19.34;52.58;99794.16;2083382;28;20030;-45
2021/11/21 01:14:58;;;;;;;;;;;;;;;19.35;52.63;99784.09;2075604;28;19967;-46
2021/11/21 01:15:58;;;;;;;;;;;;;;;19.35;52.59;99789.53;2077071;28;19923;-45
2021/11/21 01:16:58;;;;;;;;;;;;;;;19.34;52.60;99785.97;2079672;28;19949;-44
2021/11/21 01:17:59;;;;;;;;;;;;;;;19.35;52.56;99775.88;2083195;28;19959;-45
2021/11/21 01:18:59;;;;;;;;;;;;;;;19.35;52.49;99784.09;2078645;28;20311;-45
2021/11/21 01:20:00;;;;;;;;;;;;;;;19.36;52.65;99788.56;2075909;28;19966;-44
2021/11/21 01:21:00;;;;;;;;;;;;;;;19.35;52.52;99790.41;2080139;28;20315;-44
2021/11/21 01:22:01;;;;;;;;;;;;;;;19.36;52.55;99791.28;2081041;28;19916;-45
2021/11/21 01:23:02;;;;;;;;;;;;;;;19.37;52.64;99784.78;2085658;28;19916;-44
2021/11/21 01:24:03;;;;;;;;;;;;;;;19.37;52.46;99782.06;2079232;28;19921;-44
2021/11/21 01:25:04;;;;;;;;;;;;;;;19.37;52.53;99784.78;2083093;28;19912;-44
2021/11/21 01:26:04;;;;;;;;;;;;;;;19.36;52.51;99788.56;2082604;28;19948;-45
2021/11/21 01:27:05;;;;;;;;;;;;;;;19.35;52.58;99778.63;2082279;28;19908;-44
2021/11/21 01:28:05;;;;;;;;;;;;;;;19.36;52.44;99780.34;2081105;28;19909;-44
2021/11/21 01:29:06;;;;;;;;;;;;;;;19.35;52.50;99779.47;2080623;28;19920;-45
2021/11/21 01:30:08;;;;;;;;;;;;;;;19.37;52.56;99776.59;2082361;28;19947;-44
2021/11/21 01:31:08;;;;;;;;;;;;;;;19.36;52.56;99783.94;2086503;28;19927;-45
2021/11/21 01:32:08;;;;;;;;;;;;;;;19.35;52.51;99774.00;2084790;28;20116;-45
2021/11/21 01:33:09;;;;;;;;;;;;;;;19.36;52.51;99780.34;2089112;28;20139;-45
2021/11/21 01:34:09;;;;;;;;;;;;;;;19.34;52.54;99776.91;2087459;28;19922;-45
2021/11/21 01:35:10;;;;;;;;;;;;;;;19.35;52.57;99778.63;2086357;28;20389;-45
2021/11/21 01:36:11;;;;;;;;;;;;;;;19.34;52.59;99771.44;2083113;28;19916;-44
2021/11/21 01:37:11;;;;;;;;;;;;;;;19.34;52.59;99775.03;2086046;28;19920;-45
2021/11/21 01:38:13;;;;;;;;;;;;;;;19.34;52.54;99768.72;2083940;28;19923;-47
2021/11/21 01:39:13;;;;;;;;;;;;;;;19.34;52.58;99771.44;2080458;28;19917;-45
2021/11/21 01:40:15;;;;;;;;;;;;;;;19.35;52.59;99767.69;2083146;28;20635;-45
2021/11/21 01:41:15;;;;;;;;;;;;;;;19.34;52.52;99771.44;2078732;28;19917;-44
2021/11/21 01:42:15;;;;;;;;;;;;;;;19.34;52.54;99772.31;2086234;28;20342;-48
2021/11/21 01:43:16;;;;;;;;;;;;;;;19.34;52.54;99771.44;2085847;28;19916;-48
2021/11/21 01:44:16;;;;;;;;;;;;;;;19.33;52.52;99773.31;2085472;28;19923;-44
2021/11/21 01:45:17;;;;;;;;;;;;;;;19.34;52.54;99779.66;2086421;28;19962;-42
2021/11/21 01:46:18;;;;;;;;;;;;;;;19.33;52.59;99775.19;2086380;28;19916;-45
2021/11/21 01:47:18;;;;;;;;;;;;;;;19.33;52.61;99777.91;2076108;28;19913;-44
2021/11/21 01:48:18;;;;;;;;;;;;;;;19.32;52.57;99774.31;2082966;28;19923;-45
2021/11/21 01:49:20;;;;;;;;;;;;;;;19.32;52.64;99773.47;2081902;28;20381;-44
2021/11/21 01:50:24;;;;;;;;;;;;;;;19.32;52.59;99778.94;2086044;28;19916;-44
2021/11/21 01:51:25;;;;;;;;;;;;;;;19.33;52.60;99769.72;2080939;28;20143;-44
2021/11/21 01:52:25;;;;;;;;;;;;;;;19.33;52.61;99781.53;2083936;28;19916;-45
2021/11/21 01:53:25;;;;;;;;;;;;;;;19.31;52.64;99774.50;2081075;28;20409;-45
2021/11/21 01:54:26;;;;;;;;;;;;;;;19.31;52.68;99769.03;2082143;28;19917;-45
2021/11/21 01:55:27;;;;;;;;;;;;;;;19.31;52.63;99778.09;2083110;28;19916;-46
2021/11/21 01:56:27;;;;;;;;;;;;;;;19.31;52.65;99774.50;2077287;28;19923;-44
2021/11/21 01:57:28;;;;;;;;;;;;;;;19.32;52.60;99774.31;2083221;28;19917;-46
2021/11/21 01:58:28;;;;;;;;;;;;;;;19.32;52.62;99762.53;2080242;28;19917;-45
2021/11/21 01:59:28;;;;;;;;;;;;;;;19.31;52.63;99761.69;2081886;28;19987;-46
2021/11/21 02:00:31;;;;;;;;;;;;;;;19.31;52.62;99761.69;2082221;28;20640;-44
2021/11/21 02:01:31;;;;;;;;;;;;;;;19.31;52.63;99760.84;2084121;28;19912;-45
2021/11/21 02:02:32;;;;;;;;;;;;;;;19.31;52.57;99760.84;2087674;28;19959;-45
2021/11/21 02:03:32;;;;;;;;;;;;;;;19.31;52.61;99763.56;2087105;28;19924;-45
2021/11/21 02:04:32;;;;;;;;;;;;;;;19.31;52.68;99769.03;2085896;28;19916;-45
2021/11/21 02:05:33;;;;;;;;;;;;;;;19.32;52.70;99757.09;2084307;28;20473;-45
2021/11/21 02:06:33;;;;;;;;;;;;;;;19.31;52.64;99767.16;2085425;28;20326;-45
2021/11/21 02:07:34;;;;;;;;;;;;;;;19.31;52.68;99763.56;2088069;28;20246;-44
2021/11/21 02:08:35;;;;;;;;;;;;;;;19.30;52.60;99757.22;2086625;28;20023;-45
2021/11/21 02:09:36;;;;;;;;;;;;;;;19.31;52.55;99755.38;2082410;28;20280;-44
2021/11/21 02:10:36;;;;;;;;;;;;;;;19.31;52.77;99763.56;2086313;28;19916;-44
2021/11/21 02:11:37;;;;;;;;;;;;;;;19.31;52.63;99755.38;2086813;28;19920;-44
2021/11/21 02:12:38;;;;;;;;;;;;;;;19.31;52.68;99755.38;2085983;28;19920;-46
2021/11/21 02:13:38;;;;;;;;;;;;;;;19.30;52.70;99757.22;2081190;28;19916;-45
2021/11/21 02:14:38;;;;;;;;;;;;;;;19.30;52.68;99751.75;2082423;28;19915;-44
2021/11/21 02:15:42;;;;;;;;;;;;;;;19.29;52.69;99752.78;2082406;28;20589;-44
2021/11/21 02:16:44;;;;;;;;;;;;;;;19.28;52.62;99753.81;2084525;28;19917;-45
2021/11/21 02:17:45;;;;;;;;;;;;;;;19.28;52.75;99751.94;2085685;28;20496;-46
2021/11/21 02:18:46;;;;;;;;;;;;;;;19.28;52.84;99757.41;2084939;28;19920;-45
2021/11/21 02:19:46;;;;;;;;;;;;;;;19.30;52.72;99750.91;2084030;28;19959;-45
2021/11/21 02:20:50;;;;;;;;;;;;;;;19.28;52.65;99745.63;2081994;28;19928;-47
2021/11/21 02:21:51;;;;;;;;;;;;;;;19.30;52.68;99753.66;2084625;28;19916;-45
2021/11/21 02:22:51;;;;;;;;;;;;;;;19.30;52.64;99748.19;2085991;28;19916;-44
2021/11/21 02:23:52;;;;;;;;;;;;;;;19.31;52.67;99744.44;2084383;28;20270;-44
2021/11/21 02:24:52;;;;;;;;;;;;;;;19.31;52.64;99750.75;2082621;28;19924;-45
2021/11/21 02:25:52;;;;;;;;;;;;;;;19.31;52.61;99747.19;2085787;28;20143;-44
2021/11/21 02:26:54;;;;;;;;;;;;;;;19.31;52.68;99738.97;2085006;28;19967;-45
2021/11/21 02:27:54;;;;;;;;;;;;;;;19.33;52.54;99742.38;2085044;28;20733;-46
2021/11/21 02:28:55;;;;;;;;;;;;;;;19.31;52.56;99736.25;2084535;28;20497;-44
2021/11/21 02:29:55;;;;;;;;;;;;;;;19.33;52.50;99736.91;2082781;28;20061;-45
2021/11/21 02:30:56;;;;;;;;;;;;;;;19.33;52.53;99742.38;2084663;28;20257;-45
2021/11/21 02:31:56;;;;;;;;;;;;;;;19.34;52.56;99738.66;2081737;28;20910;-45
2021/11/21 02:32:56;;;;;;;;;;;;;;;19.34;52.44;99738.66;2085329;28;20337;-45
2021/11/21 02:33:57;;;;;;;;;;;;;;;19.34;52.52;99728.56;2081466;28;19916;-46
2021/11/21 02:34:57;;;;;;;;;;;;;;;19.35;52.48;99729.41;2082634;28;19920;-47
2021/11/21 02:35:59;;;;;;;;;;;;;;;19.36;52.51;99731.16;2083204;28;20221;-45
2021/11/21 02:36:59;;;;;;;;;;;;;;;19.37;52.51;99727.41;2081306;28;20223;-44
2021/11/21 02:37:59;;;;;;;;;;;;;;;19.38;52.45;99727.25;2085523;28;19916;-45
2021/11/21 02:39:00;;;;;;;;;;;;;;;19.40;52.43;99727.06;2084075;28;20319;-45
2021/11/21 02:40:00;;;;;;;;;;;;;;;19.41;52.25;99723.31;2077309;28;19934;-44
2021/11/21 02:41:02;;;;;;;;;;;;;;;19.43;52.46;99721.28;2084390;28;20979;-46
2021/11/21 02:42:02;;;;;;;;;;;;;;;19.45;52.32;99719.22;2084706;28;20334;-46
2021/11/21 02:43:03;;;;;;;;;;;;;;;19.46;52.25;99716.34;2086951;28;19922;-45
2021/11/21 02:44:04;;;;;;;;;;;;;;;19.48;52.13;99718.94;2082384;28;20237;-45
2021/11/21 02:45:07;;;;;;;;;;;;;;;19.50;52.13;99714.16;2085368;28;19917;-47
2021/11/21 02:46:08;;;;;;;;;;;;;;;19.50;52.20;99711.44;2087100;28;20215;-44
2021/11/21 02:47:08;;;;;;;;;;;;;;;19.51;52.13;99707.66;2088392;28;19916;-44
2021/11/21 02:48:09;;;;;;;;;;;;;;;19.52;51.95;99703.91;2076454;28;19966;-44
2021/11/21 02:49:09;;;;;;;;;;;;;;;19.52;52.04;99701.16;2082718;28;19942;-46
2021/11/21 02:50:15;;;;;;;;;;;;;;;19.53;52.07;99702.91;2085706;28;19916;-45
2021/11/21 02:51:16;;;;;;;;;;;;;;;19.54;51.99;99701.03;2077410;28;19927;-45
2021/11/21 02:52:16;;;;;;;;;;;;;;;19.54;52.03;99703.75;2083005;28;20883;-45
2021/11/21 02:53:18;;;;;;;;;;;;;;;19.54;51.98;99701.88;2080875;28;19951;-45
2021/11/21 02:54:18;;;;;;;;;;;;;;;19.54;51.96;99693.66;2086380;28;20342;-45
2021/11/21 02:55:19;;;;;;;;;;;;;;;19.55;51.93;99698.13;2084604;28;20306;-45
2021/11/21 02:56:20;;;;;;;;;;;;;;;19.54;52.00;99693.66;2087534;28;19923;-46
2021/11/21 02:57:21;;;;;;;;;;;;;;;19.55;51.96;99695.41;2083498;28;19916;-45
2021/11/21 02:58:22;;;;;;;;;;;;;;;19.53;51.95;99681.03;2085881;28;19936;-45
2021/11/21 02:59:26;;;;;;;;;;;;;;;19.54;51.93;99688.19;2085850;28;19917;-45
2021/11/21 03:00:27;;;;;;;;;;;;;;;19.55;51.98;99692.66;2081314;28;19943;-45
2021/11/21 03:01:28;;;;;;;;;;;;;;;19.56;52.02;99685.31;2084963;28;20268;-45
2021/11/21 03:02:29;;;;;;;;;;;;;;;19.56;51.99;99686.16;2085483;28;19908;-45
2021/11/21 03:03:29;;;;;;;;;;;;;;;19.56;52.07;99688.06;2084209;28;20652;-45
2021/11/21 03:04:29;;;;;;;;;;;;;;;19.57;51.84;99687.00;2085918;28;19916;-45
2021/11/21 03:05:33;;;;;;;;;;;;;;;19.56;52.01;99686.16;2083185;28;20171;-45
2021/11/21 03:06:36;;;;;;;;;;;;;;;19.55;51.96;99692.66;2083326;28;20051;-45
2021/11/21 03:07:37;;;;;;;;;;;;;;;19.56;51.93;99694.38;2085430;28;19919;-44
2021/11/21 03:08:38;;;;;;;;;;;;;;;19.56;51.99;99693.50;2085678;28;19927;-46
2021/11/21 03:09:39;;;;;;;;;;;;;;;19.55;51.96;99684.47;2083558;28;19979;-44
2021/11/21 03:10:40;;;;;;;;;;;;;;;19.56;52.01;99683.44;2086481;28;20322;-44
2021/11/21 03:11:41;;;;;;;;;;;;;;;19.56;52.00;99694.38;2085765;28;19920;-44
2021/11/21 03:12:42;;;;;;;;;;;;;;;19.55;51.97;99684.47;2086113;28;19920;-45
2021/11/21 03:13:43;;;;;;;;;;;;;;;19.55;52.00;99686.31;2083781;28;19928;-45
2021/11/21 03:14:43;;;;;;;;;;;;;;;19.56;51.97;99683.44;2084057;28;20229;-45
2021/11/21 03:15:43;;;;;;;;;;;;;;;19.56;51.84;99688.91;2079723;28;20232;-46
2021/11/21 03:16:45;;;;;;;;;;;;;;;19.55;51.97;99687.19;2078640;28;20007;-45
2021/11/21 03:17:45;;;;;;;;;;;;;;;19.55;51.95;99691.78;2081530;28;19923;-44
2021/11/21 03:18:46;;;;;;;;;;;;;;;19.56;51.96;99693.50;2080988;28;20141;-44
2021/11/21 03:19:46;;;;;;;;;;;;;;;19.53;51.96;99683.75;2084176;28;20512;-45
2021/11/21 03:20:46;;;;;;;;;;;;;;;19.54;51.98;99688.19;2082912;28;19943;-46
2021/11/21 03:21:46;;;;;;;;;;;;;;;19.54;51.94;99682.72;2079935;28;20958;-45
2021/11/21 03:22:47;;;;;;;;;;;;;;;19.54;51.94;99681.88;2085049;28;20314;-45
2021/11/21 03:23:47;;;;;;;;;;;;;;;19.54;52.00;99682.72;2085553;28;19917;-45
2021/11/21 03:24:48;;;;;;;;;;;;;;;19.54;52.03;99690.94;2079351;28;20181;-45
2021/11/21 03:25:48;;;;;;;;;;;;;;;19.53;51.96;99689.22;2082747;28;19913;-46
2021/11/21 03:26:49;;;;;;;;;;;;;;;19.54;52.01;99690.94;2087574;28;19916;-44
2021/11/21 03:27:49;;;;;;;;;;;;;;;19.53;51.99;99691.13;2080748;28;22597;-46
2021/11/21 03:28:49;;;;;;;;;;;;;;;19.53;52.04;99683.75;2080855;28;19908;-45
2021/11/21 03:29:49;;;;;;;;;;;;;;;19.53;52.07;99688.38;2085499;28;19928;-47
2021/11/21 03:30:50;;;;;;;;;;;;;;;19.52;52.11;99683.91;2083540;28;19917;-45
2021/11/21 03:31:50;;;;;;;;;;;;;;;19.52;52.07;99682.03;2087667;28;19982;-44
2021/11/21 03:32:52;;;;;;;;;;;;;;;19.52;52.12;99690.22;2087810;28;19923;-45
2021/11/21 03:33:52;;;;;;;;;;;;;;;19.52;52.11;99686.66;2083446;28;20398;-45
2021/11/21 03:34:53;;;;;;;;;;;;;;;19.52;52.15;99687.50;2086454;28;19915;-44
2021/11/21 03:35:53;;;;;;;;;;;;;;;19.52;52.08;99681.19;2079982;28;20328;-44
2021/11/21 03:36:54;;;;;;;;;;;;;;;19.51;52.22;99677.59;2083916;28;19915;-44
2021/11/21 03:37:54;;;;;;;;;;;;;;;19.51;52.13;99674.88;2084885;28;20318;-44
2021/11/21 03:38:55;;;;;;;;;;;;;;;19.51;52.12;99672.13;2081803;28;19963;-44
2021/11/21 03:39:55;;;;;;;;;;;;;;;19.51;52.01;99677.59;2084086;28;20302;-46
2021/11/21 03:40:55;;;;;;;;;;;;;;;19.52;52.08;99671.09;2084236;28;20238;-45
2021/11/21 03:41:56;;;;;;;;;;;;;;;19.53;52.04;99672.84;2082888;28;20079;-47
2021/11/21 03:42:56;;;;;;;;;;;;;;;19.54;52.07;99674.53;2084962;28;20347;-45
2021/11/21 03:43:57;;;;;;;;;;;;;;;19.54;51.99;99674.53;2083990;28;20350;-45
2021/11/21 03:44:57;;;;;;;;;;;;;;;19.54;51.99;99663.59;2085598;28;20393;-44
2021/11/21 03:45:57;;;;;;;;;;;;;;;19.55;51.99;99670.78;2083605;28;20559;-45
2021/11/21 03:46:57;;;;;;;;;;;;;;;19.56;52.00;99671.66;2084480;28;20314;-45
2021/11/21 03:47:58;;;;;;;;;;;;;;;19.55;52.10;99665.31;2084676;28;19931;-45
2021/11/21 03:48:58;;;;;;;;;;;;;;;19.56;51.96;99672.50;2082297;28;20377;-45
2021/11/21 03:49:59;;;;;;;;;;;;;;;19.57;51.94;99673.34;2080006;28;19915;-44
2021/11/21 03:51:00;;;;;;;;;;;;;;;19.56;51.94;99667.03;2077817;28;19917;-45
2021/11/21 03:52:00;;;;;;;;;;;;;;;19.57;51.96;99668.72;2076901;28;19928;-46
2021/11/21 03:53:01;;;;;;;;;;;;;;;19.58;51.91;99661.41;2076886;28;20004;-45
2021/11/21 03:54:01;;;;;;;;;;;;;;;19.57;51.94;99662.41;2084259;28;19916;-46
2021/11/21 03:55:02;;;;;;;;;;;;;;;19.56;52.01;99661.56;2083686;28;20023;-45
2021/11/21 03:56:03;;;;;;;;;;;;;;;19.56;52.09;99661.56;2084831;28;20364;-45
2021/11/21 03:57:04;;;;;;;;;;;;;;;19.56;51.99;99658.81;2083886;28;19923;-44
2021/11/21 03:58:04;;;;;;;;;;;;;;;19.56;52.12;99656.09;2085420;28;20303;-45
2021/11/21 03:59:05;;;;;;;;;;;;;;;19.56;51.99;99660.72;2084591;28;19930;-45
2021/11/21 04:00:07;;;;;;;;;;;;;;;19.56;51.92;99661.56;2083032;28;20043;-46
2021/11/21 04:01:07;;;;;;;;;;;;;;;19.56;51.97;99650.63;2085093;28;20022;-45
2021/11/21 04:02:08;;;;;;;;;;;;;;;19.57;51.92;99656.94;2078376;28;20158;-45
2021/11/21 04:03:08;;;;;;;;;;;;;;;19.54;51.94;99655.41;2082460;28;20540;-45
2021/11/21 04:04:10;;;;;;;;;;;;;;;19.55;51.91;99648.91;2078331;28;19940;-45
2021/11/21 04:05:11;;;;;;;;;;;;;;;19.55;51.89;99651.66;2080698;28;20180;-45
2021/11/21 04:06:12;;;;;;;;;;;;;;;19.56;51.92;99650.63;2080039;28;19951;-46
2021/11/21 04:07:12;;;;;;;;;;;;;;;19.55;51.94;99648.91;2083777;28;20448;-45
2021/11/21 04:08:12;;;;;;;;;;;;;;;19.56;51.96;99649.78;2082624;28;20384;-45
2021/11/21 04:09:13;;;;;;;;;;;;;;;19.54;52.00;99655.41;2083314;28;19955;-45
2021/11/21 04:10:14;;;;;;;;;;;;;;;19.53;51.99;99653.69;2081419;28;19924;-45
2021/11/21 04:11:14;;;;;;;;;;;;;;;19.54;51.96;99651.81;2081161;28;19931;-44
2021/11/21 04:12:14;;;;;;;;;;;;;;;19.54;51.84;99649.06;2084166;28;20007;-45
2021/11/21 04:13:15;;;;;;;;;;;;;;;19.54;52.00;99649.06;2082969;28;20334;-45
2021/11/21 04:14:16;;;;;;;;;;;;;;;19.53;51.96;99644.63;2083232;28;19923;-44
2021/11/21 04:15:16;;;;;;;;;;;;;;;19.52;52.08;99646.50;2082641;28;20647;-45
2021/11/21 04:16:16;;;;;;;;;;;;;;;19.51;51.97;99642.06;2084104;28;19966;-45
2021/11/21 04:17:17;;;;;;;;;;;;;;;19.52;52.05;99643.75;2081785;28;19916;-45
2021/11/21 04:18:18;;;;;;;;;;;;;;;19.51;51.97;99647.53;2084954;28;19929;-45
2021/11/21 04:19:18;;;;;;;;;;;;;;;19.50;52.07;99643.09;2081175;28;19916;-46
2021/11/21 04:20:18;;;;;;;;;;;;;;;19.50;52.03;99640.34;2083960;28;19917;-44
2021/11/21 04:21:19;;;;;;;;;;;;;;;19.49;52.00;99642.22;2081875;28;19923;-45
2021/11/21 04:22:19;;;;;;;;;;;;;;;19.49;52.14;99644.94;2082369;28;19920;-44
2021/11/21 04:23:20;;;;;;;;;;;;;;;19.50;52.07;99648.56;2088832;28;19916;-44
2021/11/21 04:24:20;;;;;;;;;;;;;;;19.49;52.08;99649.56;2084504;28;20370;-45
2021/11/21 04:25:21;;;;;;;;;;;;;;;19.49;52.16;99646.81;2081175;28;19936;-45
2021/11/21 04:26:21;;;;;;;;;;;;;;;19.48;52.09;99647.88;2082472;28;19938;-44
2021/11/21 04:27:21;;;;;;;;;;;;;;;19.48;52.14;99642.41;2086280;28;20334;-44
2021/11/21 04:28:22;;;;;;;;;;;;;;;19.47;52.06;99635.19;2083459;28;19916;-44
2021/11/21 04:29:22;;;;;;;;;;;;;;;19.47;52.14;99636.03;2084622;28;19921;-49
2021/11/21 04:30:23;;;;;;;;;;;;;;;19.46;52.11;99633.50;2083406;28;20362;-45
2021/11/21 04:31:23;;;;;;;;;;;;;;;19.47;52.14;99635.19;2083753;28;19917;-45
2021/11/21 04:32:24;;;;;;;;;;;;;;;19.47;52.13;99635.19;2085883;28;19913;-45
2021/11/21 04:33:24;;;;;;;;;;;;;;;19.47;52.28;99629.72;2083428;28;20078;-44
2021/11/21 04:34:25;;;;;;;;;;;;;;;19.45;52.21;99627.19;2082322;28;20366;-46
2021/11/21 04:35:25;;;;;;;;;;;;;;;19.45;52.34;99624.44;2083096;28;19912;-44
2021/11/21 04:36:25;;;;;;;;;;;;;;;19.46;52.08;99633.50;2080910;28;20077;-44
2021/11/21 04:37:26;;;;;;;;;;;;;;;19.45;52.31;99634.50;2081083;28;19917;-45
2021/11/21 04:38:26;;;;;;;;;;;;;;;19.44;52.27;99630.06;2084752;28;20373;-45
2021/11/21 04:39:27;;;;;;;;;;;;;;;19.45;52.19;99626.28;2086599;28;20361;-45
2021/11/21 04:40:27;;;;;;;;;;;;;;;19.44;52.25;99621.88;2086514;28;20447;-46
2021/11/21 04:41:28;;;;;;;;;;;;;;;19.43;52.19;99629.22;2079177;28;19919;-45
2021/11/21 04:42:28;;;;;;;;;;;;;;;19.43;52.28;99622.91;2084694;28;20229;-47
2021/11/21 04:43:28;;;;;;;;;;;;;;;19.41;52.29;99614.84;2088356;28;19931;-47
2021/11/21 04:44:28;;;;;;;;;;;;;;;19.42;52.28;99618.44;2082615;28;19927;-44
2021/11/21 04:45:29;;;;;;;;;;;;;;;19.42;52.28;99616.56;2081441;28;19962;-45
2021/11/21 04:46:29;;;;;;;;;;;;;;;19.42;52.28;99615.69;2088886;28;19912;-44
2021/11/21 04:47:29;;;;;;;;;;;;;;;19.42;52.26;99618.44;2081792;28;19916;-45
2021/11/21 04:48:31;;;;;;;;;;;;;;;19.42;52.35;99615.69;2086942;28;20261;-46
2021/11/21 04:49:32;;;;;;;;;;;;;;;19.41;52.37;99617.59;2078360;28;19917;-45
2021/11/21 04:50:32;;;;;;;;;;;;;;;19.41;52.35;99616.72;2078506;28;19917;-44
2021/11/21 04:51:33;;;;;;;;;;;;;;;19.40;52.32;99615.88;2083322;28;20049;-44
2021/11/21 04:52:33;;;;;;;;;;;;;;;19.40;52.33;99617.72;2085501;28;19919;-45
2021/11/21 04:53:34;;;;;;;;;;;;;;;19.39;52.38;99611.41;2080317;28;20003;-45
2021/11/21 04:54:35;;;;;;;;;;;;;;;19.40;52.40;99612.28;2085790;28;19909;-44
2021/11/21 04:55:35;;;;;;;;;;;;;;;19.38;52.39;99609.72;2081429;28;20345;-44
2021/11/21 04:56:35;;;;;;;;;;;;;;;19.40;52.33;99613.16;2079985;28;19909;-44
2021/11/21 04:57:40;;;;;;;;;;;;;;;19.40;52.39;99615.00;2085507;28;19923;-44
2021/11/21 04:58:41;;;;;;;;;;;;;;;19.41;52.31;99619.47;2082516;28;20051;-46
2021/11/21 04:59:42;;;;;;;;;;;;;;;19.41;52.33;99614.00;2081653;28;19923;-44
2021/11/21 05:00:42;;;;;;;;;;;;;;;19.40;52.30;99612.28;2083823;28;19967;-45
2021/11/21 05:01:43;;;;;;;;;;;;;;;19.41;52.35;99614.00;2080916;28;19917;-44
2021/11/21 05:02:44;;;;;;;;;;;;;;;19.40;52.31;99609.53;2084233;28;19913;-44
2021/11/21 05:03:45;;;;;;;;;;;;;;;19.41;52.34;99605.81;2083058;28;19923;-45
2021/11/21 05:04:45;;;;;;;;;;;;;;;19.40;52.33;99606.81;2086041;28;20318;-44
2021/11/21 05:05:45;;;;;;;;;;;;;;;19.39;52.28;99608.69;2095983;28;19912;-44
2021/11/21 05:06:46;;;;;;;;;;;;;;;19.40;52.30;99607.69;2079757;28;19909;-44
2021/11/21 05:07:46;;;;;;;;;;;;;;;19.41;52.34;99605.81;2081134;28;19950;-45
2021/11/21 05:08:47;;;;;;;;;;;;;;;19.41;52.43;99614.00;2078210;28;20302;-45
2021/11/21 05:09:47;;;;;;;;;;;;;;;19.41;52.29;99605.81;2083267;28;20012;-44
2021/11/21 05:10:48;;;;;;;;;;;;;;;19.41;52.36;99609.38;2087280;28;19920;-44
2021/11/21 05:11:48;;;;;;;;;;;;;;;19.41;52.12;99603.06;2090895;28;19924;-45
2021/11/21 05:12:50;;;;;;;;;;;;;;;19.40;52.21;99596.75;2087878;28;19916;-45
2021/11/21 05:13:50;;;;;;;;;;;;;;;19.41;52.27;99597.59;2089227;28;19916;-45
2021/11/21 05:14:52;;;;;;;;;;;;;;;19.41;52.21;99600.34;2085857;28;19923;-45
2021/11/21 05:15:53;;;;;;;;;;;;;;;19.40;52.24;99594.00;2087278;28;20305;-45
2021/11/21 05:16:53;;;;;;;;;;;;;;;19.42;52.27;99604.75;2083994;28;20182;-45